Terminal Aerodrome Forecast
Issued by NWS St Louis, MO

Home | Current Version | Previous Version | Text Only | Print | Product List | Glossary On
Versions: 1 2 3 4 5 6 7 8 9 10 11 12 13 14 15 16 17 18 19 20 21 22 23 24 25 26 27
089
FTUS43 KLSX 202340
TAFCOU
TAF
KCOU 202340Z 2100/2124 14005KT P6SM BKN050
     FM210100 VRB04KT P6SM VCTS BKN027CB
     FM211100 VRB04KT P6SM VCSH BKN014
     FM211400 25005KT P6SM BKN028
     FM212000 28005KT P6SM BKN050=

USA.gov is the U.S. government's official web portal to all federal, state and local government web resources and services.